Wilson Lake, Indiana
Current Conditions -  °F | °C
As of 4:54 PM on Monday 20 Oct 2014 (Local Time) from KFWA Reporting Station
Broken Clouds Broken Clouds  
Wind Chill: 61°   Ceiling: 4500
Heat Index: 61°   Visibility: 10mi
Dew Point: 51°   Wind: 7mph
Humidity: 70%   Direction: 220°SW
Pressure: 29.83"   Gusts: NA
Location:  41.1479°N, 85.4772°W
Report Text: KFWA 202054Z 22006KT 10SM BKN045 BKN070 16/11 A2983 RMK AO2 SLP100 T01610106 55002
Loading
Personal Weather Stations






























Interactive Weather Map
Tropical Storm Tracking
New forecast layout! Learn more

10-Day Weather Forecast

Advertisements
Track Severe Weather on mobile